WEATHER/FLIGHT PLANNING

Hattiesburg Radar

 

 

 

 

Weather Links

Flight Planning Links

 

METAR

2015/03/04 16:25 KHBG 041625Z AUTO 18014G20KT 10SM FEW016 BKN021 BKN027 24/19 A3001 RMK AO2 T02390194

TAF

2015/03/04 14:39 TAF AMD KHBG 041335Z 0414/0512 17006KT P6SM VCSH BKN013 OVC021 FM041600 20012G18KT P6SM OVC040 FM050200 18006KT P6SM OVC020 FM050600 21006KT 6SM BR OVC007 FM050900 34011KT 6SM BR VCSH OVC003